This is the latest recevied weather packets stored in our database for station/object HA2SKA-1. If no packets are shown the sender has not sent any weather packets the latest 10 day(s).
| Time | Temp. | Humidity | Pressure | Rain* | Wind** | Luminosity | Snow |
|---|---|---|---|---|---|---|---|
| 1787762105 | 28.89° C | 53% | 1019.4 hPa | - | - | - | - |
| 1787761205 | 29.44° C | 50% | 1019.4 hPa | - | - | - | - |
| 1787760305 | 30° C | 50% | 1019.3 hPa | - | - | - | - |
| 1787759405 | 30° C | 50% | 1019 hPa | - | - | - | - |
| 1787758505 | 30.56° C | 48% | 1019.2 hPa | - | - | - | - |
| 1787757605 | 30.56° C | 47% | 1019.3 hPa | - | - | - | - |
| 1787756705 | 30.56° C | 47% | 1019.2 hPa | - | - | - | - |
| 1787755805 | 30.56° C | 47% | 1019 hPa | - | - | - | - |
| 1787656657 | 29.44° C | 37% | 1014.7 hPa | - | - | - | - |
| 1787655757 | 29.44° C | 37% | 1014.8 hPa | - | - | - | - |
| 1787654857 | 29.44° C | 40% | 1014.9 hPa | - | - | - | - |
| 1787653957 | 28.33° C | 41% | 1015.2 hPa | - | - | - | - |
| 1787653056 | 28.33° C | 39% | 1015.2 hPa | - | - | - | - |
| 1787652156 | 29.44° C | 39% | 1015.5 hPa | - | - | - | - |
| 1787651256 | 28.89° C | 41% | 1015.9 hPa | - | - | - | - |
| 1787650356 | 28.89° C | 41% | 1016 hPa | - | - | - | - |
| 1787649456 | 30° C | 38% | 1016 hPa | - | - | - | - |
| 1787648556 | 29.44° C | 40% | 1016.3 hPa | - | - | - | - |
| 1787647656 | 28.89° C | 41% | 1016.3 hPa | - | - | - | - |
| 1787646756 | 29.44° C | 39% | 1016.2 hPa | - | - | - | - |
| 1787645856 | 28.89° C | 39% | 1016 hPa | - | - | - | - |
| 1787644955 | 29.44° C | 38% | 1015.8 hPa | - | - | - | - |
| 1787644055 | 27.78° C | 40% | 1015.7 hPa | - | - | - | - |
| 1787643155 | 26.67° C | 42% | 1015.7 hPa | - | - | - | - |
| 1787642255 | 26.67° C | 42% | 1015.7 hPa | - | - | - | - |
* Rain since midnight (hover to see other rain measurements)
** Current wind speed in m/s (hover to see current wind gust speed)